Time;durP1;ratioP1;P1;durP2;ratioP2;P2;SDS_P1;SDS_P2;PMS_P1;PMS_P2;Temp;Humidity;BMP_temperature;BMP_pressure;BME280_temperature;BME280_humidity;BME280_pressure;Samples;Min_cycle;Max_cycle;Signal;HPM_P1;HPM_P2
2021/03/18 00:00:20;;;;;;;8.65;4.65;;;1.70;99.90;;;;;;5064848;28;20230;-86
2021/03/18 00:02:47;;;;;;;6.15;5.00;;;1.80;99.90;;;;;;5066129;28;20207;-85
2021/03/18 00:05:13;;;;;;;5.82;5.18;;;1.90;99.90;;;;;;5067427;28;20210;-85
2021/03/18 00:07:40;;;;;;;6.43;4.78;;;2.00;99.90;;;;;;5070042;28;20217;-86
2021/03/18 00:10:07;;;;;;;8.88;5.38;;;2.00;99.90;;;;;;5070085;28;20651;-85
2021/03/18 00:12:33;;;;;;;5.82;4.70;;;2.10;99.90;;;;;;5070239;28;20253;-85
2021/03/18 00:15:00;;;;;;;4.50;4.10;;;2.00;99.90;;;;;;5071517;28;20210;-85
2021/03/18 00:17:26;;;;;;;7.18;4.60;;;2.20;99.90;;;;;;5071608;28;20203;-85
2021/03/18 00:19:53;;;;;;;8.30;5.22;;;2.10;99.90;;;;;;5072069;28;20230;-85
2021/03/18 00:22:20;;;;;;;6.32;4.70;;;2.00;99.90;;;;;;5072872;28;20199;-85
2021/03/18 00:24:46;;;;;;;11.55;6.43;;;1.90;99.90;;;;;;5072718;28;20207;-85
2021/03/18 00:27:18;;;;;;;8.18;5.53;;;2.00;99.90;;;;;;5072830;28;20197;-84
2021/03/18 00:29:45;;;;;;;6.88;5.22;;;1.70;99.90;;;;;;5073220;28;20277;-85
2021/03/18 00:32:11;;;;;;;6.25;4.80;;;1.90;99.90;;;;;;5074744;28;20207;-84
2021/03/18 00:34:37;;;;;;;7.30;4.97;;;1.90;99.90;;;;;;5077792;28;20214;-84
2021/03/18 00:37:04;;;;;;;11.55;5.10;;;1.90;99.90;;;;;;5077637;28;20241;-84
2021/03/18 00:39:30;;;;;;;6.72;4.47;;;1.90;99.90;;;;;;5075114;28;20227;-84
2021/03/18 00:41:57;;;;;;;8.15;5.20;;;1.80;99.90;;;;;;5070098;28;20210;-84
2021/03/18 00:44:23;;;;;;;8.95;6.53;;;1.90;99.90;;;;;;5069642;28;20256;-84
2021/03/18 00:46:49;;;;;;;7.68;6.00;;;1.80;99.90;;;;;;5065418;28;20214;-84
2021/03/18 00:49:15;;;;;;;7.68;5.63;;;1.70;99.90;;;;;;5063440;28;20258;-84
2021/03/18 00:51:41;;;;;;;6.78;4.70;;;1.70;99.90;;;;;;5061558;28;20222;-84
2021/03/18 00:54:08;;;;;;;6.63;5.82;;;1.70;99.90;;;;;;5058842;28;20195;-85
2021/03/18 00:56:34;;;;;;;6.28;4.95;;;1.60;99.90;;;;;;5063381;28;20218;-85
2021/03/18 00:59:00;;;;;;;6.70;6.00;;;1.50;99.90;;;;;;5060637;28;20223;-85
2021/03/18 01:01:27;;;;;;;5.72;5.22;;;1.40;99.90;;;;;;5060862;28;20203;-85
2021/03/18 01:03:53;;;;;;;7.18;5.90;;;1.50;99.90;;;;;;5059759;28;20670;-85
2021/03/18 01:06:21;;;;;;;7.15;5.57;;;1.50;99.90;;;;;;5058118;28;20214;-85
2021/03/18 01:08:48;;;;;;;5.90;5.25;;;1.50;99.90;;;;;;5058322;28;20234;-85
2021/03/18 01:11:17;;;;;;;8.18;5.60;;;1.50;99.90;;;;;;5057403;28;20586;-85
2021/03/18 01:13:45;;;;;;;7.35;5.68;;;1.50;99.90;;;;;;5057100;28;20207;-85
2021/03/18 01:16:13;;;;;;;9.25;6.55;;;1.60;99.90;;;;;;5056806;28;20199;-86
2021/03/18 01:18:43;;;;;;;7.25;6.40;;;1.50;99.90;;;;;;5057127;28;20230;-85
2021/03/18 01:21:11;;;;;;;5.90;5.30;;;1.50;99.90;;;;;;5056936;28;20230;-85
2021/03/18 01:23:38;;;;;;;8.50;6.35;;;1.60;99.90;;;;;;5057567;28;20207;-85
2021/03/18 01:26:04;;;;;;;16.17;11.60;;;1.50;99.90;;;;;;5057285;28;20636;-86
2021/03/18 01:28:32;;;;;;;8.38;6.25;;;1.70;99.90;;;;;;5057707;28;20230;-85
2021/03/18 01:30:58;;;;;;;8.18;6.15;;;1.40;99.90;;;;;;5057812;28;20215;-85
2021/03/18 01:33:25;;;;;;;8.90;5.95;;;1.50;99.90;;;;;;5058789;28;20238;-84
2021/03/18 01:35:51;;;;;;;8.48;5.95;;;1.50;99.90;;;;;;5069002;28;20203;-84
2021/03/18 01:38:17;;;;;;;6.75;6.15;;;1.50;99.90;;;;;;5073809;28;20199;-85
2021/03/18 01:40:44;;;;;;;8.57;7.63;;;1.10;99.90;;;;;;5073761;28;20199;-85
2021/03/18 01:43:10;;;;;;;8.50;7.03;;;1.50;99.90;;;;;;5074749;28;20214;-85
2021/03/18 01:45:37;;;;;;;11.93;6.93;;;1.50;99.90;;;;;;5062767;28;20211;-85
2021/03/18 01:48:05;;;;;;;12.02;8.52;;;1.50;99.90;;;;;;5057909;28;20206;-86
2021/03/18 01:50:34;;;;;;;9.45;8.18;;;1.60;99.90;;;;;;5058241;28;20219;-85
2021/03/18 01:53:01;;;;;;;13.02;8.00;;;1.60;99.90;;;;;;5057788;28;20252;-86
2021/03/18 01:55:32;;;;;;;8.48;6.65;;;1.60;99.90;;;;;;5057836;28;20202;-85
2021/03/18 01:57:59;;;;;;;11.25;8.00;;;1.60;99.90;;;;;;5061304;28;20184;-85
2021/03/18 02:00:27;;;;;;;12.27;6.70;;;1.60;99.90;;;;;;5062884;28;20430;-85
2021/03/18 02:02:55;;;;;;;12.35;7.65;;;1.60;99.90;;;;;;5081691;28;20194;-85
2021/03/18 02:05:21;;;;;;;9.57;7.78;;;1.80;99.90;;;;;;5079893;28;20202;-85
2021/03/18 02:07:51;;;;;;;9.40;7.68;;;1.60;99.90;;;;;;5076133;28;20209;-85
2021/03/18 02:10:18;;;;;;;10.57;6.63;;;1.60;99.90;;;;;;5075312;28;20215;-85
2021/03/18 02:12:44;;;;;;;8.88;7.97;;;1.70;99.90;;;;;;5075123;28;20225;-85
2021/03/18 02:15:11;;;;;;;7.53;6.82;;;1.70;99.90;;;;;;5074029;28;20202;-85
2021/03/18 02:17:46;;;;;;;10.93;6.85;;;1.70;99.90;;;;;;5072527;28;20573;-85
2021/03/18 02:20:44;;;;;;;13.30;7.50;;;1.70;99.90;;;;;;5072932;28;20225;-85
2021/03/18 02:23:49;;;;;;;11.95;10.32;;;1.70;99.90;;;;;;5073231;28;20187;-85
2021/03/18 02:26:29;;;;;;;9.07;6.72;;;1.80;99.90;;;;;;5033977;28;20206;-85
2021/03/18 02:29:13;;;;;;;7.70;6.80;;;1.80;99.90;;;;;;5060948;28;20231;-85
2021/03/18 02:31:54;;;;;;;11.88;7.22;;;1.70;99.90;;;;;;5061298;28;20274;-85
2021/03/18 02:34:47;;;;;;;7.82;6.43;;;1.60;99.90;;;;;;5063446;28;20191;-85
2021/03/18 02:37:16;;;;;;;8.80;7.57;;;1.70;99.90;;;;;;5062108;28;20195;-85
2021/03/18 02:39:48;;;;;;;10.80;7.15;;;1.70;99.90;;;;;;5060582;28;20238;-85
2021/03/18 02:42:18;;;;;;;8.38;6.45;;;1.80;99.90;;;;;;5060613;28;20614;-85
2021/03/18 02:44:45;;;;;;;7.22;6.43;;;1.80;99.90;;;;;;5061462;28;20187;-85
2021/03/18 02:47:13;;;;;;;7.30;6.60;;;1.80;99.90;;;;;;5061259;28;20249;-85
2021/03/18 02:49:42;;;;;;;9.23;6.20;;;1.80;99.90;;;;;;5061657;28;20219;-85
2021/03/18 02:52:10;;;;;;;6.80;6.20;;;1.80;99.90;;;;;;5073634;28;20230;-85
2021/03/18 02:54:38;;;;;;;13.32;7.65;;;1.90;99.90;;;;;;5078748;28;20249;-85
2021/03/18 02:57:08;;;;;;;7.85;6.20;;;1.90;99.90;;;;;;5078319;28;20211;-85
2021/03/18 02:59:37;;;;;;;9.50;7.72;;;1.80;99.90;;;;;;5074505;28;20242;-85
2021/03/18 03:02:06;;;;;;;7.70;6.30;;;1.90;99.90;;;;;;5073606;28;20217;-85
2021/03/18 03:04:37;;;;;;;9.43;7.00;;;1.80;99.90;;;;;;5072610;28;20658;-85
2021/03/18 03:07:04;;;;;;;8.80;7.47;;;1.90;99.90;;;;;;5064850;28;20191;-85
2021/03/18 03:09:31;;;;;;;7.32;6.25;;;2.30;99.90;;;;;;5063091;28;20223;-85
2021/03/18 03:12:01;;;;;;;6.28;5.63;;;1.90;99.90;;;;;;5060518;28;20230;-84
2021/03/18 03:14:29;;;;;;;9.30;6.30;;;1.90;99.90;;;;;;5062097;28;20221;-85
2021/03/18 03:16:55;;;;;;;6.75;5.45;;;1.90;99.90;;;;;;5062256;28;20211;-85
2021/03/18 03:19:22;;;;;;;8.95;5.93;;;1.90;99.90;;;;;;5061137;28;20233;-85
2021/03/18 03:21:49;;;;;;;7.50;6.22;;;1.90;99.90;;;;;;5060474;28;20219;-85
2021/03/18 03:24:16;;;;;;;8.02;6.15;;;1.90;99.90;;;;;;5059946;28;20678;-85
2021/03/18 03:26:43;;;;;;;7.13;6.13;;;1.90;99.90;;;;;;5061132;28;20199;-85
2021/03/18 03:29:11;;;;;;;7.63;6.28;;;1.90;99.90;;;;;;5060878;28;20227;-84
2021/03/18 03:31:37;;;;;;;9.52;6.15;;;1.80;99.90;;;;;;5061291;28;20227;-84
2021/03/18 03:34:05;;;;;;;10.27;7.40;;;1.80;99.90;;;;;;5060284;28;20203;-85
2021/03/18 03:36:32;;;;;;;8.10;6.47;;;1.80;99.90;;;;;;5059643;28;20207;-85
2021/03/18 03:38:58;;;;;;;7.72;6.93;;;1.80;99.90;;;;;;5059484;28;20255;-85
2021/03/18 03:41:24;;;;;;;9.18;6.90;;;1.80;99.90;;;;;;5061301;28;20210;-85
2021/03/18 03:43:50;;;;;;;8.40;6.68;;;2.00;99.90;;;;;;5072503;28;20210;-85
2021/03/18 03:46:17;;;;;;;8.60;6.93;;;1.80;99.90;;;;;;5070950;28;20206;-85
2021/03/18 03:48:44;;;;;;;9.35;7.50;;;1.70;99.90;;;;;;5062676;28;20230;-85
2021/03/18 03:51:10;;;;;;;9.90;7.20;;;1.80;99.90;;;;;;5071320;28;20229;-85
2021/03/18 03:53:41;;;;;;;9.35;7.20;;;1.80;99.90;;;;;;5068854;28;20214;-85
2021/03/18 03:56:16;;;;;;;8.82;6.22;;;1.90;99.90;;;;;;5075892;28;20206;-84
2021/03/18 03:58:47;;;;;;;8.88;7.05;;;2.00;99.90;;;;;;5075219;28;20230;-84
2021/03/18 04:01:19;;;;;;;8.80;7.22;;;1.90;99.90;;;;;;5072455;28;20424;-84
2021/03/18 04:03:46;;;;;;;8.77;7.97;;;2.00;99.90;;;;;;5074154;28;20191;-83
2021/03/18 04:06:13;;;;;;;7.30;6.60;;;1.90;99.90;;;;;;5075538;28;20203;-84
2021/03/18 04:08:42;;;;;;;10.18;7.75;;;2.00;99.90;;;;;;5076198;28;20210;-85
2021/03/18 04:11:10;;;;;;;8.10;6.88;;;1.90;99.90;;;;;;5076979;28;20258;-85
2021/03/18 04:13:37;;;;;;;9.95;6.90;;;1.90;99.90;;;;;;5078605;28;20199;-85
2021/03/18 04:16:04;;;;;;;8.48;6.32;;;1.90;99.90;;;;;;5078353;28;20190;-85
2021/03/18 04:18:36;;;;;;;8.02;6.38;;;2.10;99.90;;;;;;5076430;28;20210;-85
2021/03/18 04:21:05;;;;;;;8.18;7.40;;;1.90;99.90;;;;;;5075656;28;20250;-85
2021/03/18 04:23:32;;;;;;;7.25;6.45;;;1.90;99.90;;;;;;5075561;28;20218;-85
2021/03/18 04:25:59;;;;;;;6.60;5.90;;;2.10;99.90;;;;;;5075478;28;20206;-84
2021/03/18 04:28:27;;;;;;;7.97;7.18;;;2.30;99.90;;;;;;5075956;28;20210;-85
2021/03/18 04:30:53;;;;;;;8.73;6.55;;;3.90;99.90;;;;;;5073370;28;20229;-85
2021/03/18 04:33:20;;;;;;;8.40;6.70;;;1.90;99.90;;;;;;5075902;28;20199;-85
2021/03/18 04:35:48;;;;;;;10.70;6.70;;;1.80;99.90;;;;;;5075248;28;20203;-85
2021/03/18 04:38:14;;;;;;;9.82;7.53;;;1.80;99.90;;;;;;5075037;28;20210;-85
2021/03/18 04:40:41;;;;;;;8.90;7.75;;;1.80;99.90;;;;;;5074857;28;20219;-85
2021/03/18 04:43:07;;;;;;;9.88;8.60;;;1.90;99.90;;;;;;5075186;28;20091;-85
2021/03/18 04:45:35;;;;;;;11.27;7.70;;;1.90;99.90;;;;;;5075151;28;20203;-85
2021/03/18 04:48:02;;;;;;;9.70;8.65;;;1.90;99.90;;;;;;5069027;28;20558;-85
2021/03/18 04:50:30;;;;;;;11.65;9.63;;;1.80;99.90;;;;;;5063904;28;20230;-85
2021/03/18 04:52:57;;;;;;;14.40;10.95;;;1.90;99.90;;;;;;5058788;28;20601;-85
2021/03/18 04:55:24;;;;;;;12.55;9.00;;;1.90;99.90;;;;;;5061639;28;20670;-86
2021/03/18 04:57:57;;;;;;;14.85;10.13;;;1.90;99.90;;;;;;5060523;28;20923;-85
2021/03/18 05:00:25;;;;;;;14.68;10.15;;;2.00;99.90;;;;;;5062179;28;20470;-85
2021/03/18 05:02:51;;;;;;;13.95;10.45;;;2.00;99.90;;;;;;5060924;28;20203;-85
2021/03/18 05:05:20;;;;;;;14.95;10.82;;;2.00;99.90;;;;;;5060155;28;20257;-86
2021/03/18 05:07:49;;;;;;;16.80;11.57;;;2.10;99.90;;;;;;5058020;28;20222;-85
2021/03/18 05:10:18;;;;;;;12.18;9.40;;;2.10;99.90;;;;;;5058569;28;20233;-85
2021/03/18 05:12:45;;;;;;;12.70;9.85;;;2.10;99.90;;;;;;5059495;28;20272;-85
2021/03/18 05:15:14;;;;;;;16.40;11.70;;;2.10;99.90;;;;;;5057737;28;20465;-85
2021/03/18 05:17:42;;;;;;;18.17;11.35;;;2.20;99.90;;;;;;5058661;28;20199;-85
2021/03/18 05:20:11;;;;;;;18.27;11.77;;;2.40;99.90;;;;;;5058646;28;20493;-85
2021/03/18 05:22:38;;;;;;;21.95;14.25;;;2.30;99.90;;;;;;5065164;28;20438;-85
2021/03/18 05:25:08;;;;;;;17.48;11.98;;;2.20;99.90;;;;;;5072774;28;20233;-85
2021/03/18 05:27:36;;;;;;;17.67;12.02;;;2.20;99.90;;;;;;5059370;28;20257;-85
2021/03/18 05:30:05;;;;;;;21.90;12.82;;;2.20;99.90;;;;;;5058410;28;20226;-85
2021/03/18 05:32:31;;;;;;;19.10;12.30;;;2.20;99.90;;;;;;5056641;28;20219;-85
2021/03/18 05:34:57;;;;;;;24.05;13.23;;;2.20;99.90;;;;;;5056477;28;20218;-86
2021/03/18 05:37:24;;;;;;;19.88;12.52;;;2.30;99.90;;;;;;5038694;28;20207;-85
2021/03/18 05:39:50;;;;;;;19.70;12.88;;;2.20;99.90;;;;;;5056441;28;20231;-85
2021/03/18 05:42:16;;;;;;;16.13;12.00;;;2.20;99.90;;;;;;5055962;28;20225;-86
2021/03/18 05:44:44;;;;;;;16.70;13.07;;;2.20;99.90;;;;;;5056309;28;20256;-86
2021/03/18 05:47:11;;;;;;;15.75;11.38;;;2.20;99.90;;;;;;5056525;28;20229;-85
2021/03/18 05:49:38;;;;;;;14.02;10.40;;;2.20;99.90;;;;;;5057097;28;20230;-86
2021/03/18 05:52:07;;;;;;;12.05;9.95;;;2.20;99.90;;;;;;5056910;28;20230;-85
2021/03/18 05:54:34;;;;;;;15.57;9.65;;;2.20;99.90;;;;;;5057083;28;20210;-85
2021/03/18 05:57:01;;;;;;;20.13;11.32;;;2.20;99.90;;;;;;5057844;28;20199;-84
2021/03/18 05:59:28;;;;;;;15.45;10.13;;;2.10;99.90;;;;;;5058258;28;20231;-84
2021/03/18 06:01:55;;;;;;;11.90;10.35;;;2.10;99.90;;;;;;5058864;28;20289;-85
2021/03/18 06:04:22;;;;;;;16.90;10.95;;;2.10;99.90;;;;;;5058687;28;20202;-85
2021/03/18 06:06:49;;;;;;;18.67;11.70;;;2.10;99.90;;;;;;5059639;28;20695;-85
2021/03/18 06:09:17;;;;;;;18.20;12.27;;;2.10;99.90;;;;;;5060840;28;20639;-86
2021/03/18 06:11:45;;;;;;;18.15;11.30;;;2.20;99.90;;;;;;5061119;28;20242;-85
2021/03/18 06:14:11;;;;;;;16.75;12.65;;;2.10;99.90;;;;;;5059756;28;20663;-85
2021/03/18 06:16:40;;;;;;;19.35;13.38;;;2.20;99.90;;;;;;5060290;28;20202;-85
2021/03/18 06:19:08;;;;;;;22.80;14.20;;;2.20;99.90;;;;;;5059393;28;20231;-85
2021/03/18 06:21:45;;;;;;;19.88;13.50;;;2.20;99.90;;;;;;5060490;28;20203;-85
2021/03/18 06:24:12;;;;;;;17.60;14.15;;;2.30;99.90;;;;;;5065131;28;20285;-85
2021/03/18 06:26:39;;;;;;;17.88;14.18;;;2.30;99.90;;;;;;5059888;28;20225;-85
2021/03/18 06:29:26;;;;;;;21.27;14.55;;;2.40;99.90;;;;;;5059907;28;20561;-85
2021/03/18 06:31:52;;;;;;;18.08;14.30;;;2.50;99.90;;;;;;5058819;28;20207;-85
2021/03/18 06:34:38;;;;;;;24.33;14.68;;;2.20;99.90;;;;;;5058298;28;20700;-85
2021/03/18 06:37:04;;;;;;;22.30;16.48;;;2.40;99.90;;;;;;5060047;28;20198;-86
2021/03/18 06:39:31;;;;;;;22.25;15.52;;;2.50;99.90;;;;;;5059696;28;20261;-85
2021/03/18 06:42:00;;;;;;;21.25;15.45;;;2.50;99.90;;;;;;5062869;28;20219;-85
2021/03/18 06:44:28;;;;;;;23.10;15.90;;;2.60;99.90;;;;;;5061836;28;20214;-85
2021/03/18 06:46:56;;;;;;;22.70;15.45;;;2.80;99.90;;;;;;5064125;28;20241;-85
2021/03/18 06:49:24;;;;;;;23.45;14.57;;;2.80;99.90;;;;;;5061807;28;20318;-85
2021/03/18 06:52:03;;;;;;;19.00;14.07;;;2.90;99.90;;;;;;5063774;28;20254;-86
2021/03/18 06:54:33;;;;;;;15.70;13.85;;;2.90;99.90;;;;;;5067046;28;20187;-84
2021/03/18 06:57:00;;;;;;;23.38;12.77;;;2.80;99.90;;;;;;5068149;28;20233;-85
2021/03/18 06:59:29;;;;;;;18.58;11.52;;;2.80;99.90;;;;;;5068132;28;20245;-85
2021/03/18 07:02:03;;;;;;;16.80;12.75;;;2.90;99.90;;;;;;5064762;28;20238;-85
2021/03/18 07:04:33;;;;;;;14.38;10.75;;;2.90;99.90;;;;;;5068095;28;20197;-85
2021/03/18 07:07:00;;;;;;;15.50;10.90;;;2.90;99.90;;;;;;5076467;28;20206;-84
2021/03/18 07:09:30;;;;;;;14.02;10.07;;;3.00;99.90;;;;;;5078762;28;20234;-85
2021/03/18 07:12:00;;;;;;;14.35;9.95;;;2.90;99.90;;;;;;5078497;28;20215;-85
2021/03/18 07:14:35;;;;;;;16.50;10.80;;;3.00;99.90;;;;;;5076085;28;20291;-85
2021/03/18 07:17:02;;;;;;;11.00;9.52;;;3.00;99.90;;;;;;5065435;28;20210;-85
2021/03/18 07:19:43;;;;;;;11.15;9.95;;;3.00;99.90;;;;;;5067554;28;20227;-85
2021/03/18 07:22:16;;;;;;;15.85;10.45;;;2.80;99.90;;;;;;5077175;28;20247;-84
2021/03/18 07:24:43;;;;;;;27.08;11.55;;;2.80;99.90;;;;;;5070325;28;20191;-84
2021/03/18 07:27:11;;;;;;;15.93;10.30;;;2.90;99.90;;;;;;5065002;28;20206;-84
2021/03/18 07:29:40;;;;;;;13.60;10.80;;;2.90;99.90;;;;;;5071974;28;20227;-85
2021/03/18 07:32:07;;;;;;;13.35;10.85;;;2.90;99.90;;;;;;5071139;28;20292;-84
2021/03/18 07:34:33;;;;;;;17.83;11.20;;;2.90;99.90;;;;;;5061651;28;20203;-84
2021/03/18 07:37:02;;;;;;;14.98;10.60;;;3.20;99.90;;;;;;5063596;28;20210;-85
2021/03/18 07:39:31;;;;;;;16.45;9.77;;;3.10;99.90;;;;;;5076741;28;20242;-84
2021/03/18 07:41:59;;;;;;;17.10;12.80;;;3.10;99.90;;;;;;5070176;28;20656;-86
2021/03/18 07:44:27;;;;;;;14.55;11.20;;;3.20;99.90;;;;;;5062489;28;20217;-84
2021/03/18 07:46:54;;;;;;;19.05;10.77;;;3.60;99.90;;;;;;5067830;28;20241;-85
2021/03/18 07:49:23;;;;;;;14.10;9.90;;;3.30;99.90;;;;;;5074180;28;20230;-85
2021/03/18 07:51:52;;;;;;;10.93;9.50;;;3.50;99.90;;;;;;5071446;28;20238;-85
2021/03/18 07:54:20;;;;;;;13.73;9.93;;;3.60;99.90;;;;;;5067774;28;20207;-84
2021/03/18 07:56:51;;;;;;;11.80;8.57;;;3.50;99.90;;;;;;5061797;28;20199;-84
2021/03/18 07:59:20;;;;;;;11.20;8.35;;;3.80;99.90;;;;;;5061322;28;20652;-85
2021/03/18 08:01:46;;;;;;;10.80;9.15;;;3.70;99.90;;;;;;5069990;28;20210;-86
2021/03/18 08:04:14;;;;;;;14.05;9.07;;;3.80;99.90;;;;;;5070313;28;20202;-85
2021/03/18 08:06:54;;;;;;;24.98;20.67;;;4.00;99.90;;;;;;5072555;28;20209;-85
2021/03/18 08:09:50;;;;;;;9.63;8.50;;;4.00;99.90;;;;;;5075128;28;20311;-85
2021/03/18 08:12:31;;;;;;;16.58;9.90;;;4.10;99.90;;;;;;5074821;28;20191;-85
2021/03/18 08:15:30;;;;;;;16.00;9.18;;;4.20;99.90;;;;;;5075970;28;20211;-85
2021/03/18 08:18:17;;;;;;;14.52;9.15;;;4.20;99.90;;;;;;5072214;28;20206;-86
2021/03/18 08:21:04;;;;;;;11.70;8.23;;;4.30;99.90;;;;;;5069311;28;20183;-85
2021/03/18 08:23:43;;;;;;;11.48;8.80;;;4.30;99.90;;;;;;5069336;28;20210;-85
2021/03/18 08:26:12;;;;;;;13.80;10.02;;;4.50;99.90;;;;;;5069370;28;20187;-85
2021/03/18 08:28:44;;;;;;;15.45;9.50;;;4.30;99.90;;;;;;5071444;28;20223;-85
2021/03/18 08:31:11;;;;;;;18.85;10.68;;;4.40;99.90;;;;;;5073315;28;20207;-85
2021/03/18 08:33:45;;;;;;;11.63;9.07;;;4.30;99.90;;;;;;5072941;28;20203;-85
2021/03/18 08:36:25;;;;;;;12.75;9.77;;;4.30;99.90;;;;;;5073495;28;20187;-86
2021/03/18 08:38:53;;;;;;;10.68;9.45;;;4.60;99.90;;;;;;5092430;23;20234;-81
2021/03/18 08:41:29;;;;;;;13.23;10.43;;;4.40;99.90;;;;;;5040351;28;20686;-82
2021/03/18 08:44:18;;;;;;;13.65;9.45;;;4.50;99.90;;;;;;5041410;28;20207;-80
2021/03/18 08:46:50;;;;;;;14.23;10.77;;;4.70;99.90;;;;;;5046587;28;20589;-82
2021/03/18 08:49:32;;;;;;;12.90;10.15;;;4.60;99.90;;;;;;5046329;28;20277;-80
2021/03/18 08:52:00;;;;;;;11.40;9.75;;;4.60;99.90;;;;;;5046498;28;20232;-79
2021/03/18 08:54:52;;;;;;;16.55;11.60;;;4.80;99.90;;;;;;5047625;28;20200;-79
2021/03/18 08:57:34;;;;;;;17.92;11.43;;;5.00;99.90;;;;;;5056146;28;20292;-81
2021/03/18 09:00:10;;;;;;;14.63;10.85;;;5.10;99.90;;;;;;5049877;28;20227;-81
2021/03/18 09:02:38;;;;;;;16.42;10.38;;;5.20;99.90;;;;;;5050372;28;20172;-81
2021/03/18 09:05:10;;;;;;;13.68;9.73;;;5.40;99.90;;;;;;5056083;28;20218;-79
2021/03/18 09:07:40;;;;;;;17.45;11.95;;;5.30;99.90;;;;;;5055644;28;20172;-80
2021/03/18 09:10:12;;;;;;;15.05;10.35;;;5.50;99.90;;;;;;5044045;28;20571;-79
2021/03/18 09:12:41;;;;;;;11.68;8.40;;;5.30;99.90;;;;;;5038594;28;20307;-79
2021/03/18 09:15:15;;;;;;;15.07;9.13;;;5.60;99.90;;;;;;5039360;28;20204;-80
2021/03/18 09:17:44;;;;;;;8.38;7.50;;;5.70;99.90;;;;;;5038232;28;20605;-78
2021/03/18 09:20:13;;;;;;;9.13;7.07;;;5.90;99.90;;;;;;5038269;28;20266;-79
2021/03/18 09:22:40;;;;;;;12.02;8.88;;;5.70;99.90;;;;;;5038556;28;20199;-79
2021/03/18 09:25:07;;;;;;;9.07;7.85;;;5.60;99.90;;;;;;5037579;28;20698;-80
2021/03/18 09:27:38;;;;;;;13.32;9.80;;;5.70;99.90;;;;;;5039012;28;20659;-79
2021/03/18 09:30:20;;;;;;;11.02;8.60;;;5.80;99.90;;;;;;5038461;28;20628;-81
2021/03/18 09:32:47;;;;;;;12.40;8.15;;;5.80;99.90;;;;;;5038866;28;20204;-79
2021/03/18 09:35:14;;;;;;;12.15;8.25;;;5.80;99.90;;;;;;5051056;28;20226;-79
2021/03/18 09:37:43;;;;;;;18.42;9.57;;;5.90;99.90;;;;;;5056135;28;20195;-78
2021/03/18 09:40:10;;;;;;;12.82;9.40;;;5.90;99.90;;;;;;5056375;28;20246;-79
2021/03/18 09:42:37;;;;;;;12.27;9.43;;;5.80;99.90;;;;;;5055589;28;20199;-79
2021/03/18 09:45:11;;;;;;;11.45;8.30;;;5.50;99.90;;;;;;5055286;28;20234;-79
2021/03/18 09:47:38;;;;;;;9.63;8.32;;;5.60;99.90;;;;;;5048139;28;20705;-80
2021/03/18 09:50:06;;;;;;;11.80;7.70;;;5.50;99.90;;;;;;5044891;28;20733;-80
2021/03/18 09:52:33;;;;;;;9.82;7.30;;;5.30;99.90;;;;;;5049628;28;20282;-80
2021/03/18 09:55:01;;;;;;;12.20;8.20;;;5.60;99.90;;;;;;5046672;28;20199;-79
2021/03/18 09:57:29;;;;;;;10.98;8.80;;;5.60;99.90;;;;;;5047370;28;20208;-80
2021/03/18 10:00:01;;;;;;;12.23;8.02;;;5.40;99.90;;;;;;5052069;28;20208;-80
2021/03/18 10:02:29;;;;;;;11.18;9.02;;;5.40;99.90;;;;;;5046905;28;20187;-79
2021/03/18 10:05:01;;;;;;;9.65;8.63;;;5.50;99.90;;;;;;5045263;28;20203;-80
2021/03/18 10:07:29;;;;;;;10.00;7.80;;;5.60;99.90;;;;;;5049111;28;20192;-80
2021/03/18 10:09:56;;;;;;;11.18;8.75;;;5.60;99.90;;;;;;5047254;28;20227;-80
2021/03/18 10:12:32;;;;;;;11.40;8.73;;;5.40;99.90;;;;;;5051072;28;20255;-80
2021/03/18 10:15:01;;;;;;;10.23;7.80;;;5.70;99.90;;;;;;5052594;28;20207;-79
2021/03/18 10:17:30;;;;;;;9.75;7.60;;;5.30;99.90;;;;;;5046130;28;20231;-80
2021/03/18 10:19:59;;;;;;;11.70;8.07;;;5.30;99.90;;;;;;5052878;28;20360;-80
2021/03/18 10:22:32;;;;;;;13.10;7.60;;;5.20;99.90;;;;;;5052718;28;20206;-79
2021/03/18 10:25:01;;;;;;;11.88;8.23;;;5.20;99.90;;;;;;5053120;28;20196;-78
2021/03/18 10:27:33;;;;;;;10.68;8.93;;;5.10;99.90;;;;;;5054837;28;20203;-79
2021/03/18 10:30:09;;;;;;;13.25;8.60;;;5.30;99.90;;;;;;5053455;28;20223;-79
2021/03/18 10:32:35;;;;;;;11.75;10.02;;;5.20;99.90;;;;;;5055436;28;20211;-79
2021/03/18 10:35:01;;;;;;;12.90;10.50;;;5.00;99.90;;;;;;5052502;28;20211;-80
2021/03/18 10:37:32;;;;;;;14.68;12.27;;;5.30;99.90;;;;;;5055070;28;20207;-81
2021/03/18 10:40:13;;;;;;;12.48;10.73;;;5.60;99.90;;;;;;5054007;28;20238;-80
2021/03/18 10:42:43;;;;;;;10.95;8.50;;;5.70;99.90;;;;;;5053715;28;20210;-78
2021/03/18 10:45:18;;;;;;;11.77;8.63;;;5.70;99.90;;;;;;5053114;28;20193;-79
2021/03/18 10:47:46;;;;;;;10.32;9.00;;;5.70;99.90;;;;;;5054440;28;20204;-80
2021/03/18 10:50:14;;;;;;;10.00;7.95;;;5.70;99.90;;;;;;5052398;28;20219;-80
2021/03/18 10:52:41;;;;;;;11.27;10.05;;;5.60;99.90;;;;;;5054202;28;20231;-79
2021/03/18 10:55:09;;;;;;;10.82;9.02;;;5.60;99.90;;;;;;5055266;28;20210;-79
2021/03/18 10:57:36;;;;;;;15.07;8.95;;;5.60;99.90;;;;;;5054011;28;20203;-80
2021/03/18 11:00:06;;;;;;;13.60;8.73;;;5.70;99.90;;;;;;5056186;28;20227;-78
2021/03/18 11:02:33;;;;;;;14.60;8.88;;;5.90;99.90;;;;;;5052562;28;20199;-78
2021/03/18 11:05:01;;;;;;;11.13;8.63;;;6.10;99.90;;;;;;5055908;28;20187;-79
2021/03/18 11:07:28;;;;;;;14.60;9.13;;;6.20;99.90;;;;;;5053035;28;20299;-79
2021/03/18 11:10:11;;;;;;;11.73;8.23;;;6.30;99.90;;;;;;5052970;28;20227;-77
2021/03/18 11:12:37;;;;;;;10.95;7.00;;;6.40;99.90;;;;;;5053535;28;20208;-78
2021/03/18 11:15:05;;;;;;;11.93;8.68;;;6.20;99.90;;;;;;5050044;28;20219;-79
2021/03/18 11:17:37;;;;;;;14.30;7.80;;;6.30;99.90;;;;;;5048034;28;20207;-78
2021/03/18 11:20:09;;;;;;;12.68;7.47;;;6.40;99.90;;;;;;5048722;28;20224;-79
2021/03/18 11:22:35;;;;;;;10.95;7.47;;;6.30;99.90;;;;;;5051013;28;20542;-79
2021/03/18 11:25:07;;;;;;;17.55;9.00;;;6.10;99.90;;;;;;5048171;28;20216;-79
2021/03/18 11:27:35;;;;;;;9.57;6.65;;;6.20;99.90;;;;;;5047216;28;20191;-78
2021/03/18 11:30:02;;;;;;;10.95;6.80;;;6.30;99.90;;;;;;5047203;28;20228;-79
2021/03/18 11:32:28;;;;;;;9.48;6.35;;;6.30;99.90;;;;;;5050840;28;20220;-78
2021/03/18 11:34:56;;;;;;;8.93;7.57;;;6.40;99.90;;;;;;5056871;28;20208;-78
2021/03/18 11:37:22;;;;;;;8.02;7.20;;;6.30;99.90;;;;;;5053027;28;20226;-79
2021/03/18 11:39:49;;;;;;;11.48;7.38;;;6.30;99.90;;;;;;5055453;28;20255;-81
2021/03/18 11:42:18;;;;;;;10.05;7.45;;;6.40;99.90;;;;;;5054244;28;20211;-79
2021/03/18 11:44:46;;;;;;;7.55;6.68;;;6.30;99.90;;;;;;5050849;28;20207;-78
2021/03/18 11:47:14;;;;;;;12.63;8.13;;;6.50;99.90;;;;;;5050675;28;20195;-80
2021/03/18 11:49:42;;;;;;;8.15;6.85;;;6.20;99.90;;;;;;5050682;28;20282;-79
2021/03/18 11:52:09;;;;;;;11.40;8.15;;;6.10;99.90;;;;;;5045492;28;20238;-80
2021/03/18 11:54:37;;;;;;;8.98;7.38;;;6.30;99.90;;;;;;5042645;28;20261;-80
2021/03/18 11:57:04;;;;;;;11.32;7.25;;;6.40;99.90;;;;;;5042687;28;20203;-79
2021/03/18 11:59:30;;;;;;;9.50;8.10;;;6.60;99.90;;;;;;5041698;28;20254;-79
2021/03/18 12:01:58;;;;;;;7.57;6.78;;;6.20;99.90;;;;;;5046048;28;20557;-79
2021/03/18 12:04:24;;;;;;;10.65;7.40;;;6.80;99.90;;;;;;5053381;28;20203;-80
2021/03/18 12:06:50;;;;;;;7.75;6.68;;;6.80;99.90;;;;;;5048744;28;20208;-81
2021/03/18 12:09:16;;;;;;;6.82;6.13;;;6.70;99.90;;;;;;5047263;28;20224;-79
2021/03/18 12:11:43;;;;;;;11.88;7.60;;;6.60;99.90;;;;;;5056756;28;20207;-79
2021/03/18 12:14:09;;;;;;;13.15;7.75;;;6.70;99.90;;;;;;5051707;28;20204;-78
2021/03/18 12:16:36;;;;;;;7.82;6.95;;;6.60;99.90;;;;;;5057203;28;20218;-79
2021/03/18 12:19:10;;;;;;;10.00;6.68;;;7.10;99.90;;;;;;5050904;28;20214;-82
2021/03/18 12:21:37;;;;;;;6.78;5.82;;;6.80;99.90;;;;;;5051386;28;20187;-79
2021/03/18 12:24:04;;;;;;;7.95;6.32;;;6.90;99.90;;;;;;5054397;28;20211;-79
2021/03/18 12:26:32;;;;;;;6.47;5.60;;;7.10;99.90;;;;;;5047457;28;20238;-80
2021/03/18 12:28:58;;;;;;;7.10;5.60;;;6.80;99.90;;;;;;5047781;28;20207;-80
2021/03/18 12:31:24;;;;;;;6.13;5.38;;;7.10;99.90;;;;;;5042068;28;20214;-79
2021/03/18 12:33:51;;;;;;;7.35;5.68;;;6.80;99.90;;;;;;5050256;28;20223;-80
2021/03/18 12:36:18;;;;;;;5.60;5.05;;;7.00;99.90;;;;;;5054055;28;20207;-79
2021/03/18 12:38:44;;;;;;;6.30;5.63;;;7.00;99.90;;;;;;5052214;28;20192;-80
2021/03/18 12:41:12;;;;;;;6.55;5.50;;;7.30;99.90;;;;;;5052491;28;20235;-80
2021/03/18 12:43:38;;;;;;;5.57;5.07;;;7.10;99.90;;;;;;5053109;28;20218;-80
2021/03/18 12:46:04;;;;;;;7.43;5.97;;;7.30;99.90;;;;;;5053061;28;20252;-79
2021/03/18 12:48:31;;;;;;;7.18;5.97;;;7.50;99.90;;;;;;5048345;28;20203;-79
2021/03/18 12:50:57;;;;;;;6.63;6.03;;;7.70;99.90;;;;;;5053091;28;20219;-79
2021/03/18 12:53:25;;;;;;;6.57;4.60;;;7.50;99.90;;;;;;5052309;28;20254;-79
2021/03/18 12:55:51;;;;;;;5.10;4.60;;;7.10;99.90;;;;;;5050617;28;20242;-79
2021/03/18 12:58:17;;;;;;;5.45;4.53;;;7.40;99.90;;;;;;5055153;28;20203;-79